Time;durP1;ratioP1;P1;durP2;ratioP2;P2;SDS_P1;SDS_P2;PMS_P1;PMS_P2;Temp;Humidity;BMP_temperature;BMP_pressure;BME280_temperature;BME280_humidity;BME280_pressure;Samples;Min_cycle;Max_cycle;Signal;HPM_P1;HPM_P2
2023/01/13 00:01:24;;;;;;;18.65;4.60;;;9.30;99.90;;;;;;4983841;28;20054;-75
2023/01/13 00:03:50;;;;;;;26.00;6.00;;;9.20;99.90;;;;;;4982715;28;20065;-76
2023/01/13 00:06:19;;;;;;;30.55;6.25;;;9.20;99.90;;;;;;4968267;28;20101;-75
2023/01/13 00:08:48;;;;;;;24.30;5.55;;;9.20;99.90;;;;;;4981926;28;20097;-77
2023/01/13 00:11:14;;;;;;;22.52;5.70;;;9.20;99.90;;;;;;4968310;28;20038;-74
2023/01/13 00:13:40;;;;;;;24.45;6.20;;;9.10;99.90;;;;;;4950302;28;20053;-70
2023/01/13 00:16:12;;;;;;;25.95;6.22;;;9.10;99.90;;;;;;4968611;28;20050;-76
2023/01/13 00:18:37;;;;;;;32.10;6.45;;;9.00;99.90;;;;;;4984441;28;20054;-75
2023/01/13 00:21:12;;;;;;;30.95;7.30;;;9.00;99.90;;;;;;4985226;28;20096;-75
2023/01/13 00:23:38;;;;;;;30.92;6.82;;;9.00;99.90;;;;;;4982872;28;20404;-75
2023/01/13 00:26:10;;;;;;;27.90;6.68;;;8.90;99.90;;;;;;4967036;28;20050;-76
2023/01/13 00:28:36;;;;;;;29.88;6.80;;;8.90;99.90;;;;;;4984630;28;20471;-75
2023/01/13 00:31:10;;;;;;;29.23;7.40;;;8.90;99.90;;;;;;4966707;28;20133;-75
2023/01/13 00:33:37;;;;;;;36.33;6.88;;;8.80;99.90;;;;;;4968870;28;20069;-74
2023/01/13 00:36:05;;;;;;;35.83;7.10;;;8.80;99.90;;;;;;4968474;28;20046;-75
2023/01/13 00:38:33;;;;;;;26.38;6.97;;;8.80;99.90;;;;;;4968103;28;20054;-75
2023/01/13 00:41:01;;;;;;;33.00;8.07;;;8.80;99.90;;;;;;4986186;28;20500;-74
2023/01/13 00:43:28;;;;;;;32.95;6.75;;;8.80;99.90;;;;;;4984016;28;20046;-75
2023/01/13 00:45:55;;;;;;;33.83;8.93;;;8.70;99.90;;;;;;4984682;28;20341;-74
2023/01/13 00:48:22;;;;;;;34.95;8.45;;;8.70;99.90;;;;;;4986355;28;20078;-76
2023/01/13 00:51:02;;;;;;;37.15;8.82;;;8.70;99.90;;;;;;4970654;28;20042;-74
2023/01/13 00:53:32;;;;;;;34.75;8.73;;;8.60;99.90;;;;;;4985659;28;20477;-74
2023/01/13 00:55:59;;;;;;;30.60;7.50;;;8.50;99.90;;;;;;4987028;28;20399;-78
2023/01/13 00:58:25;;;;;;;34.92;8.30;;;8.50;99.90;;;;;;5000158;28;20053;-75
2023/01/13 01:00:51;;;;;;;39.05;9.07;;;8.60;99.90;;;;;;4971914;28;20390;-76
2023/01/13 01:03:17;;;;;;;37.08;8.90;;;8.60;99.90;;;;;;4989052;28;20038;-75
2023/01/13 01:05:42;;;;;;;33.22;7.93;;;8.50;99.90;;;;;;4974025;28;20045;-73
2023/01/13 01:08:12;;;;;;;34.15;7.95;;;8.50;99.90;;;;;;4990817;28;20040;-76
2023/01/13 01:10:38;;;;;;;40.70;9.13;;;8.50;99.90;;;;;;4971591;28;20546;-73
2023/01/13 01:13:03;;;;;;;36.60;7.32;;;8.50;99.90;;;;;;4989216;28;20068;-73
2023/01/13 01:15:29;;;;;;;33.65;8.70;;;8.50;99.90;;;;;;4972258;28;20076;-73
2023/01/13 01:17:55;;;;;;;34.33;8.07;;;8.50;99.90;;;;;;4990640;28;20124;-73
2023/01/13 01:20:21;;;;;;;38.30;8.10;;;8.50;99.90;;;;;;4970921;28;20037;-73
2023/01/13 01:22:47;;;;;;;37.83;8.57;;;8.40;99.90;;;;;;4967373;28;20069;-69
2023/01/13 01:25:12;;;;;;;32.80;7.35;;;8.40;99.90;;;;;;4971201;28;20038;-70
2023/01/13 01:27:38;;;;;;;35.05;8.10;;;8.30;99.90;;;;;;4955930;28;20061;-75
2023/01/13 01:30:05;;;;;;;27.23;7.20;;;8.40;99.90;;;;;;4973218;28;20034;-73
2023/01/13 01:32:33;;;;;;;36.65;7.57;;;8.40;99.90;;;;;;4973345;28;20058;-73
2023/01/13 01:34:59;;;;;;;26.13;6.20;;;8.40;99.90;;;;;;4957265;28;20124;-73
2023/01/13 01:37:24;;;;;;;27.70;6.95;;;8.50;99.90;;;;;;4954307;28;20518;-76
2023/01/13 01:39:50;;;;;;;30.23;6.93;;;8.50;99.90;;;;;;4972878;28;20042;-76
2023/01/13 01:45:16;;;;;;;30.95;6.80;;;8.50;99.90;;;;;;4973696;28;20052;-76
2023/01/13 01:47:42;;;;;;;;;;;8.50;99.90;;;;;;4989325;28;20050;-76
2023/01/13 01:50:09;;;;;;;25.48;6.45;;;8.50;99.90;;;;;;4972476;28;19929;-75
2023/01/13 01:52:41;;;;;;;32.10;7.68;;;8.50;99.90;;;;;;4964199;28;20064;-74
2023/01/13 01:55:18;;;;;;;29.48;6.57;;;8.50;99.90;;;;;;4987536;28;20069;-73
2023/01/13 01:57:55;;;;;;;35.17;7.10;;;8.50;99.90;;;;;;4988955;28;20319;-75
2023/01/13 02:00:22;;;;;;;30.48;6.13;;;8.50;99.90;;;;;;4987331;28;20090;-73
2023/01/13 02:02:50;;;;;;;28.48;6.88;;;8.50;99.90;;;;;;4969992;28;20049;-74
2023/01/13 02:05:16;;;;;;;23.90;5.90;;;8.40;99.90;;;;;;4981357;28;20120;-76
2023/01/13 02:07:45;;;;;;;28.52;7.05;;;8.40;99.90;;;;;;4988170;28;20144;-73
2023/01/13 02:10:14;;;;;;;34.35;7.15;;;8.40;99.90;;;;;;4964670;28;20444;-74
2023/01/13 02:12:43;;;;;;;34.80;7.45;;;8.40;99.90;;;;;;4983227;28;20112;-76
2023/01/13 02:15:17;;;;;;;32.83;7.05;;;8.40;99.90;;;;;;4980969;28;20045;-74
2023/01/13 02:18:11;;;;;;;30.15;6.95;;;8.40;99.90;;;;;;4985315;28;20575;-73
2023/01/13 02:20:51;;;;;;;30.83;5.80;;;8.40;99.90;;;;;;4968332;28;20084;-73
2023/01/13 02:26:31;;;;;;;28.25;6.32;;;8.50;99.90;;;;;;4985261;28;20084;-75
2023/01/13 02:32:05;;;;;;;27.17;6.78;;;8.40;99.90;;;;;;4984487;28;20633;-72
2023/01/13 02:34:44;;;;;;;30.52;6.78;;;8.40;99.90;;;;;;4985946;28;20085;-71
2023/01/13 02:37:18;;;;;;;31.75;6.97;;;8.40;99.90;;;;;;4967328;28;20125;-71
2023/01/13 02:39:47;;;;;;;32.08;7.13;;;8.40;99.90;;;;;;4966595;28;20051;-72
2023/01/13 02:45:16;;;;;;;28.52;6.93;;;8.40;99.90;;;;;;4983375;28;20133;-70
2023/01/13 02:47:46;;;;;;;31.95;7.30;;;8.40;99.90;;;;;;4983957;28;20064;-70
2023/01/13 02:50:18;;;;;;;31.02;6.72;;;8.30;99.90;;;;;;4985877;28;20142;-74
2023/01/13 02:52:50;;;;;;;26.83;5.93;;;8.30;99.90;;;;;;4985041;28;20485;-73
2023/01/13 02:55:39;;;;;;;31.98;7.38;;;8.30;99.90;;;;;;4982783;28;20046;-74
2023/01/13 02:58:10;;;;;;;26.83;6.47;;;8.20;99.90;;;;;;4974691;28;20066;-73
2023/01/13 03:00:37;;;;;;;31.70;7.63;;;8.20;99.90;;;;;;4975723;28;20050;-73
2023/01/13 03:03:10;;;;;;;32.50;6.72;;;8.20;99.90;;;;;;4982691;28;20428;-74
2023/01/13 03:05:36;;;;;;;28.85;7.03;;;8.20;99.90;;;;;;4947661;28;20303;-73
2023/01/13 03:08:14;;;;;;;32.15;7.65;;;8.30;99.90;;;;;;4951291;28;20043;-74
2023/01/13 03:10:46;;;;;;;31.13;7.35;;;8.20;99.90;;;;;;4968570;28;20045;-77
2023/01/13 03:13:12;;;;;;;31.73;7.25;;;8.20;99.90;;;;;;4985924;28;20043;-75
2023/01/13 03:16:10;;;;;;;37.95;8.45;;;8.20;99.90;;;;;;4968699;28;20057;-77
2023/01/13 03:18:51;;;;;;;33.63;7.68;;;8.20;99.90;;;;;;4965813;28;20148;-74
2023/01/13 03:21:27;;;;;;;39.17;7.55;;;8.30;99.90;;;;;;4970018;28;20046;-74
2023/01/13 03:24:16;;;;;;;32.28;7.03;;;8.30;99.90;;;;;;4984800;28;20050;-73
2023/01/13 03:27:14;;;;;;;32.83;7.20;;;8.30;99.90;;;;;;4984734;28;20061;-74
2023/01/13 03:29:48;;;;;;;31.13;7.65;;;8.30;99.90;;;;;;4966189;28;20050;-74
2023/01/13 03:32:51;;;;;;;33.88;7.35;;;8.30;99.90;;;;;;4985099;28;20055;-74
2023/01/13 03:35:25;;;;;;;34.83;8.55;;;8.30;99.90;;;;;;4953199;28;20060;-70
2023/01/13 03:38:02;;;;;;;30.58;7.25;;;8.30;99.90;;;;;;4968856;28;20054;-72
2023/01/13 03:40:34;;;;;;;37.17;8.00;;;8.30;99.90;;;;;;4983343;28;20038;-72
2023/01/13 03:46:06;;;;;;;35.85;8.35;;;8.30;99.90;;;;;;4983591;28;20173;-70
2023/01/13 03:48:34;;;;;;;38.33;8.35;;;8.30;99.90;;;;;;4975340;28;20532;-70
2023/01/13 03:51:05;;;;;;;35.55;8.18;;;8.30;99.90;;;;;;4984264;28;20040;-71
2023/01/13 03:53:51;;;;;;;31.10;7.25;;;8.30;99.90;;;;;;4985555;28;20058;-71
2023/01/13 03:56:25;;;;;;;34.80;8.10;;;8.30;99.90;;;;;;4956505;28;20042;-71
2023/01/13 03:58:53;;;;;;;33.30;7.53;;;8.40;99.90;;;;;;4968376;28;20057;-71
2023/01/13 04:01:42;;;;;;;28.63;6.63;;;8.40;99.90;;;;;;4984702;28;20532;-71
2023/01/13 04:04:18;;;;;;;37.50;7.22;;;8.40;99.90;;;;;;4984078;28;20053;-71
2023/01/13 04:07:06;;;;;;;29.48;7.60;;;8.40;99.90;;;;;;4985654;28;20050;-72
2023/01/13 04:09:49;;;;;;;33.90;7.90;;;8.50;99.90;;;;;;4967933;28;20069;-70
2023/01/13 04:15:21;;;;;;;29.70;6.78;;;8.50;99.90;;;;;;4982825;28;20042;-75
2023/01/13 04:17:47;;;;;;;33.90;7.63;;;8.50;99.90;;;;;;4984895;28;20385;-75
2023/01/13 04:20:13;;;;;;;36.03;7.97;;;8.50;99.90;;;;;;4984343;28;20045;-76
2023/01/13 04:22:39;;;;;;;36.55;8.25;;;8.50;99.90;;;;;;4966030;28;20043;-73
2023/01/13 04:25:05;;;;;;;32.22;7.70;;;8.50;99.90;;;;;;4964533;28;20049;-77
2023/01/13 04:27:31;;;;;;;32.88;7.97;;;8.50;99.90;;;;;;4963525;28;20058;-76
2023/01/13 04:29:57;;;;;;;34.50;7.18;;;8.40;99.90;;;;;;4966578;28;20051;-73
2023/01/13 04:32:23;;;;;;;29.50;7.50;;;8.50;99.90;;;;;;4946969;28;20046;-74
2023/01/13 04:34:48;;;;;;;28.95;7.07;;;8.40;99.90;;;;;;4985238;28;20038;-74
2023/01/13 04:37:14;;;;;;;31.25;8.05;;;8.40;99.90;;;;;;4950931;28;20034;-73
2023/01/13 04:39:40;;;;;;;31.55;7.55;;;8.40;99.90;;;;;;4968087;28;20054;-73
2023/01/13 04:42:05;;;;;;;35.55;7.75;;;8.40;99.90;;;;;;4966784;28;20436;-73
2023/01/13 04:44:34;;;;;;;30.00;7.22;;;8.40;99.90;;;;;;4968814;28;20161;-73
2023/01/13 04:47:03;;;;;;;36.05;7.70;;;8.30;99.90;;;;;;4935702;28;20126;-75
2023/01/13 04:49:29;;;;;;;32.55;7.93;;;8.40;99.90;;;;;;4969292;28;20058;-70
2023/01/13 04:51:55;;;;;;;31.38;7.05;;;8.30;99.90;;;;;;4967198;28;20054;-71
2023/01/13 04:54:21;;;;;;;37.08;7.30;;;8.40;99.90;;;;;;4968374;28;20045;-69
2023/01/13 04:56:46;;;;;;;27.70;7.45;;;8.30;99.90;;;;;;4967500;28;21315;-74
2023/01/13 04:59:13;;;;;;;31.73;7.53;;;8.30;99.90;;;;;;4964984;28;20044;-75
2023/01/13 05:01:39;;;;;;;33.97;7.97;;;8.30;99.90;;;;;;4978001;28;20039;-75
2023/01/13 05:04:06;;;;;;;32.42;7.25;;;8.30;99.90;;;;;;4977781;28;20046;-74
2023/01/13 05:06:31;;;;;;;33.58;7.68;;;8.40;99.90;;;;;;4969060;28;20053;-74
2023/01/13 05:08:57;;;;;;;32.60;7.50;;;8.40;99.90;;;;;;4964557;28;20484;-76
2023/01/13 05:17:00;;;;;;;30.15;7.40;;;8.40;99.90;;;;;;4968116;28;20046;-71
2023/01/13 05:19:32;;;;;;;30.92;6.65;;;8.40;99.90;;;;;;4984006;28;20050;-70
2023/01/13 05:27:32;;;;;;;34.38;7.10;;;8.30;99.90;;;;;;4970514;28;20263;-75
2023/01/13 05:29:59;;;;;;;31.20;7.72;;;8.30;99.90;;;;;;4981739;28;20046;-77
2023/01/13 05:32:28;;;;;;;28.58;6.35;;;8.30;99.90;;;;;;4986852;28;20037;-76
2023/01/13 05:34:55;;;;;;;31.83;7.22;;;8.30;99.90;;;;;;4947386;28;20043;-73
2023/01/13 05:37:21;;;;;;;28.27;6.50;;;8.20;99.90;;;;;;4974352;28;20034;-73
2023/01/13 05:45:16;;;;;;;31.58;6.28;;;8.10;99.90;;;;;;4982349;28;20050;-74
2023/01/13 05:47:41;;;;;;;23.13;5.75;;;8.10;99.90;;;;;;4967312;28;20053;-75
2023/01/13 05:50:08;;;;;;;34.67;7.20;;;8.10;99.90;;;;;;4971176;28;20034;-73
2023/01/13 05:52:33;;;;;;;25.13;5.05;;;8.10;99.90;;;;;;4984621;28;20054;-76
2023/01/13 05:54:59;;;;;;;24.27;5.75;;;8.10;99.90;;;;;;4955776;28;20052;-74
2023/01/13 05:57:25;;;;;;;28.48;6.45;;;8.10;99.90;;;;;;4985357;28;20042;-76
2023/01/13 05:59:51;;;;;;;27.13;5.15;;;8.10;99.90;;;;;;4983735;28;20054;-76
2023/01/13 06:02:17;;;;;;;25.88;5.45;;;8.10;99.90;;;;;;4953262;28;20034;-76
2023/01/13 06:04:43;;;;;;;27.45;6.30;;;8.10;99.90;;;;;;4985348;28;20046;-75
2023/01/13 06:07:09;;;;;;;23.35;5.93;;;8.10;99.90;;;;;;4984651;28;20034;-74
2023/01/13 06:09:37;;;;;;;28.70;5.47;;;8.10;99.90;;;;;;4954094;28;20042;-75
2023/01/13 06:12:03;;;;;;;23.55;4.93;;;8.10;99.90;;;;;;4969075;28;20035;-77
2023/01/13 06:14:38;;;;;;;21.90;4.88;;;8.20;99.90;;;;;;4954050;28;21259;-76
2023/01/13 06:17:13;;;;;;;24.05;5.00;;;8.20;99.90;;;;;;4969185;28;20050;-77
2023/01/13 06:19:40;;;;;;;19.73;5.45;;;8.20;99.90;;;;;;4985339;28;20054;-75
2023/01/13 06:22:18;;;;;;;23.27;5.32;;;8.20;99.90;;;;;;4968658;28;20059;-71
2023/01/13 06:24:49;;;;;;;18.27;4.47;;;8.20;99.90;;;;;;4984659;28;20196;-72
2023/01/13 06:27:16;;;;;;;21.42;4.85;;;8.20;99.90;;;;;;4985004;28;20038;-73
2023/01/13 06:29:42;;;;;;;16.63;3.90;;;8.30;99.90;;;;;;4953975;28;20104;-71
2023/01/13 06:32:15;;;;;;;16.98;5.07;;;8.30;99.90;;;;;;4981921;28;20038;-71
2023/01/13 06:34:46;;;;;;;20.70;4.05;;;8.30;99.90;;;;;;4963976;28;20517;-69
2023/01/13 06:37:15;;;;;;;18.88;4.38;;;8.30;99.90;;;;;;4982690;28;20472;-76
2023/01/13 06:39:41;;;;;;;21.83;4.57;;;8.30;99.90;;;;;;4968408;28;20053;-75
2023/01/13 06:44:52;;;;;;;17.38;4.32;;;8.30;99.90;;;;;;4966538;28;20038;-75
2023/01/13 06:47:18;;;;;;;20.13;4.40;;;8.30;99.90;;;;;;4980652;28;20070;-73
2023/01/13 06:49:44;;;;;;;16.45;3.72;;;8.30;99.90;;;;;;4983306;28;20251;-75
2023/01/13 06:52:10;;;;;;;18.90;4.38;;;8.20;99.90;;;;;;4963821;28;20677;-75
2023/01/13 06:54:35;;;;;;;22.17;4.70;;;8.20;99.90;;;;;;4982369;28;20046;-75
2023/01/13 06:57:01;;;;;;;16.88;4.00;;;8.20;99.90;;;;;;4967950;28;20120;-75
2023/01/13 06:59:27;;;;;;;16.58;3.60;;;8.10;99.90;;;;;;4965287;28;20046;-75
2023/01/13 07:01:53;;;;;;;14.27;3.28;;;8.20;99.90;;;;;;4986246;28;20118;-74
2023/01/13 07:04:19;;;;;;;16.63;3.65;;;8.20;99.90;;;;;;4963378;28;20042;-73
2023/01/13 07:06:45;;;;;;;21.20;4.53;;;8.20;99.90;;;;;;4982057;28;20065;-77
2023/01/13 07:09:11;;;;;;;18.70;3.35;;;8.20;99.90;;;;;;4950951;28;20050;-74
2023/01/13 07:11:36;;;;;;;21.10;4.22;;;8.20;99.90;;;;;;4985189;28;20137;-74
2023/01/13 07:16:47;;;;;;;16.65;4.20;;;8.20;99.90;;;;;;4971170;28;20174;-71
2023/01/13 07:19:12;;;;;;;18.15;3.70;;;8.10;99.90;;;;;;4951473;28;20046;-71
2023/01/13 07:21:38;;;;;;;17.65;4.38;;;8.10;99.90;;;;;;4975056;28;20054;-71
2023/01/13 07:24:04;;;;;;;17.95;4.10;;;8.10;99.90;;;;;;4982691;28;20101;-71
2023/01/13 07:26:30;;;;;;;19.00;3.95;;;8.10;99.90;;;;;;4984814;28;20644;-71
2023/01/13 07:28:57;;;;;;;19.83;4.10;;;8.10;99.90;;;;;;4968853;28;20121;-72
2023/01/13 07:31:22;;;;;;;20.88;4.05;;;8.00;99.90;;;;;;4968094;28;20555;-72
2023/01/13 07:33:48;;;;;;;19.67;4.05;;;8.00;99.90;;;;;;4953366;28;20046;-72
2023/01/13 07:36:14;;;;;;;20.55;4.45;;;7.90;99.90;;;;;;4969080;28;20497;-72
2023/01/13 07:38:43;;;;;;;24.75;4.13;;;7.90;99.90;;;;;;4966129;28;20060;-72
2023/01/13 07:43:59;;;;;;;20.48;5.38;;;7.80;99.90;;;;;;4980714;28;20520;-72
2023/01/13 07:46:25;;;;;;;20.98;3.40;;;7.70;99.90;;;;;;4961054;28;20120;-72
2023/01/13 07:48:50;;;;;;;21.58;4.43;;;7.70;99.90;;;;;;4964995;28;20846;-71
2023/01/13 07:51:16;;;;;;;26.27;4.97;;;7.60;99.90;;;;;;4968260;28;20492;-72
2023/01/13 07:53:45;;;;;;;21.73;4.03;;;7.60;99.90;;;;;;4963010;28;20394;-72
2023/01/13 07:56:11;;;;;;;27.73;6.07;;;7.60;99.90;;;;;;4951629;28;20073;-71
2023/01/13 07:58:37;;;;;;;22.27;4.97;;;7.60;99.90;;;;;;4949554;28;20508;-72
2023/01/13 08:01:11;;;;;;;19.42;4.80;;;7.60;99.90;;;;;;4964813;28;20173;-71
2023/01/13 08:03:38;;;;;;;21.75;4.82;;;7.50;99.90;;;;;;4984544;28;20046;-73
2023/01/13 08:06:05;;;;;;;26.65;5.57;;;7.50;99.90;;;;;;4965194;28;20555;-71
2023/01/13 08:08:31;;;;;;;20.70;4.57;;;7.50;99.90;;;;;;4952337;28;20438;-72
2023/01/13 08:11:01;;;;;;;18.95;4.40;;;7.50;99.90;;;;;;4982620;28;20105;-72
2023/01/13 08:13:27;;;;;;;20.90;4.07;;;7.50;99.90;;;;;;4982420;28;20145;-72
2023/01/13 08:15:59;;;;;;;28.92;5.40;;;7.50;99.90;;;;;;4967085;28;20121;-72
2023/01/13 08:18:28;;;;;;;23.05;5.32;;;7.50;99.90;;;;;;4966416;28;20046;-73
2023/01/13 08:20:54;;;;;;;24.40;4.70;;;7.50;99.90;;;;;;4954862;28;20371;-72
2023/01/13 08:23:21;;;;;;;25.60;4.88;;;7.50;99.90;;;;;;4981970;28;20096;-72
2023/01/13 08:25:48;;;;;;;25.95;5.05;;;7.40;99.90;;;;;;4969857;28;20053;-72
2023/01/13 08:28:15;;;;;;;25.63;5.22;;;7.40;99.90;;;;;;4944787;28;20454;-72
2023/01/13 08:30:41;;;;;;;22.40;5.35;;;7.50;99.90;;;;;;4961836;28;20548;-75
2023/01/13 08:33:09;;;;;;;21.75;4.75;;;7.50;99.90;;;;;;4965425;28;20057;-73
2023/01/13 08:35:39;;;;;;;24.35;5.63;;;7.50;99.90;;;;;;4980518;28;20438;-75
2023/01/13 08:38:05;;;;;;;24.75;5.03;;;7.50;99.90;;;;;;4946227;28;20030;-74
2023/01/13 08:40:32;;;;;;;27.13;6.07;;;7.60;99.90;;;;;;4983054;28;20043;-76
2023/01/13 08:42:58;;;;;;;23.40;5.07;;;7.60;99.90;;;;;;4979947;28;20050;-74
2023/01/13 08:45:27;;;;;;;31.27;5.93;;;7.60;99.90;;;;;;4967586;28;20050;-74
2023/01/13 08:47:53;;;;;;;23.67;5.35;;;7.50;99.90;;;;;;4966768;28;20129;-72
2023/01/13 08:50:20;;;;;;;32.17;5.13;;;7.60;99.90;;;;;;4965741;28;20039;-71
2023/01/13 08:52:45;;;;;;;26.05;5.53;;;7.60;99.90;;;;;;4962791;28;20512;-71
2023/01/13 08:55:11;;;;;;;24.77;5.22;;;7.50;99.90;;;;;;4963111;28;20104;-73
2023/01/13 08:57:37;;;;;;;21.73;5.10;;;7.60;99.90;;;;;;4983288;28;20101;-72
2023/01/13 09:00:07;;;;;;;24.70;4.70;;;7.60;99.90;;;;;;4965978;28;20394;-72
2023/01/13 09:02:33;;;;;;;26.05;5.20;;;7.60;99.90;;;;;;4965929;28;20078;-72
2023/01/13 09:05:01;;;;;;;22.90;5.68;;;7.60;99.90;;;;;;4963274;28;20050;-71
2023/01/13 09:07:27;;;;;;;21.88;4.75;;;7.60;99.90;;;;;;4976989;28;20077;-71
2023/01/13 09:09:56;;;;;;;25.98;5.25;;;7.60;99.90;;;;;;4964537;28;20074;-72
2023/01/13 09:15:07;;;;;;;22.90;4.78;;;7.70;99.90;;;;;;4979426;28;20050;-76
2023/01/13 09:17:32;;;;;;;23.30;5.45;;;7.70;99.90;;;;;;4945377;28;20134;-74
2023/01/13 09:19:59;;;;;;;26.27;5.45;;;7.80;99.90;;;;;;4964772;28;20078;-73
2023/01/13 09:22:28;;;;;;;26.60;6.13;;;7.80;99.90;;;;;;4960770;28;20034;-76
2023/01/13 09:24:54;;;;;;;21.20;4.43;;;7.80;99.90;;;;;;4979566;28;20196;-74
2023/01/13 09:27:21;;;;;;;24.48;5.53;;;7.80;99.90;;;;;;4945665;28;20074;-75
2023/01/13 09:29:47;;;;;;;31.95;6.07;;;7.70;99.90;;;;;;4967074;28;20044;-74
2023/01/13 09:32:14;;;;;;;29.70;6.50;;;7.70;99.90;;;;;;4967573;28;20630;-72
2023/01/13 09:34:59;;;;;;;29.90;6.00;;;7.70;99.90;;;;;;4983664;28;20105;-72
2023/01/13 09:37:35;;;;;;;31.45;6.40;;;7.70;99.90;;;;;;4965428;28;20444;-72
2023/01/13 09:40:15;;;;;;;30.52;5.70;;;7.70;99.90;;;;;;4980926;28;20046;-72
2023/01/13 09:45:44;;;;;;;26.42;5.68;;;7.70;99.90;;;;;;4982794;28;20069;-72
2023/01/13 09:48:22;;;;;;;31.52;6.65;;;7.60;99.90;;;;;;4980839;28;20477;-73
2023/01/13 09:50:56;;;;;;;29.58;7.20;;;7.70;99.90;;;;;;4983908;28;20408;-76
2023/01/13 09:53:28;;;;;;;27.60;5.88;;;7.70;99.90;;;;;;4983433;28;20049;-73
2023/01/13 09:55:54;;;;;;;30.25;6.30;;;7.70;99.90;;;;;;4983274;28;20050;-79
2023/01/13 09:58:20;;;;;;;26.20;5.32;;;7.70;99.90;;;;;;4951298;28;20034;-73
2023/01/13 10:00:54;;;;;;;27.23;5.75;;;7.70;99.90;;;;;;4966654;28;20044;-73
2023/01/13 10:03:22;;;;;;;33.80;6.50;;;7.70;99.90;;;;;;4984008;28;20038;-72
2023/01/13 10:06:20;;;;;;;30.92;6.40;;;7.70;99.90;;;;;;4983205;28;20052;-77
2023/01/13 10:08:47;;;;;;;26.77;5.53;;;7.70;99.90;;;;;;4984004;28;20476;-73
2023/01/13 10:14:11;;;;;;;27.90;5.95;;;7.70;99.90;;;;;;4984037;28;20051;-72
2023/01/13 10:16:55;;;;;;;25.40;6.20;;;7.70;99.90;;;;;;4969439;28;20568;-72
2023/01/13 10:19:28;;;;;;;34.63;6.65;;;7.70;99.90;;;;;;4986003;28;20056;-73
2023/01/13 10:22:16;;;;;;;26.30;6.38;;;7.80;99.90;;;;;;4967220;28;20050;-73
2023/01/13 10:24:56;;;;;;;32.88;8.00;;;7.70;99.90;;;;;;4984094;28;20731;-74
2023/01/13 10:27:33;;;;;;;26.48;6.18;;;7.70;99.90;;;;;;4966545;28;20054;-72
2023/01/13 10:30:19;;;;;;;31.35;6.07;;;7.70;99.90;;;;;;4951219;28;20497;-72
2023/01/13 10:33:16;;;;;;;31.88;6.63;;;7.70;99.90;;;;;;4968395;28;20505;-73
2023/01/13 10:36:02;;;;;;;33.08;7.07;;;7.70;99.90;;;;;;4968245;28;20077;-73
2023/01/13 10:38:37;;;;;;;26.48;5.57;;;7.70;99.90;;;;;;4946522;28;20453;-72
2023/01/13 10:41:11;;;;;;;27.88;6.15;;;7.70;99.90;;;;;;4982891;28;20223;-71
2023/01/13 10:43:37;;;;;;;32.45;5.85;;;7.70;99.90;;;;;;4983419;28;20046;-73
2023/01/13 10:46:09;;;;;;;31.75;5.90;;;7.70;99.90;;;;;;4968672;28;20475;-72
2023/01/13 10:48:50;;;;;;;32.38;6.57;;;7.70;99.90;;;;;;4984141;28;20790;-74
2023/01/13 10:51:46;;;;;;;29.92;6.05;;;7.80;99.90;;;;;;4982651;28;20402;-72
2023/01/13 10:54:12;;;;;;;29.75;6.68;;;7.80;99.90;;;;;;4983630;28;20516;-72
2023/01/13 10:56:42;;;;;;;34.63;6.43;;;7.80;99.90;;;;;;4983704;28;20054;-72
2023/01/13 10:59:08;;;;;;;;;;;7.80;99.90;;;;;;4952738;28;20572;-71
2023/01/13 11:01:37;;;;;;;34.88;6.78;;;7.80;99.90;;;;;;4968553;28;20025;-73
2023/01/13 11:04:35;;;;;;;25.75;5.78;;;7.80;99.90;;;;;;4982975;28;20058;-72
2023/01/13 11:07:03;;;;;;;29.92;5.63;;;7.80;99.90;;;;;;4968278;28;20500;-71
2023/01/13 11:09:30;;;;;;;22.30;5.65;;;7.80;99.90;;;;;;4968237;28;20519;-72
2023/01/13 11:11:58;;;;;;;22.83;5.13;;;7.90;99.90;;;;;;4968625;28;20096;-71
2023/01/13 11:14:41;;;;;;;25.33;5.40;;;7.90;99.90;;;;;;4976985;28;20073;-72
2023/01/13 11:17:19;;;;;;;22.30;5.50;;;8.00;99.90;;;;;;4970666;28;20486;-71
2023/01/13 11:20:11;;;;;;;23.75;5.35;;;8.00;99.90;;;;;;4978217;28;20094;-71
2023/01/13 11:22:54;;;;;;;24.70;5.07;;;8.00;99.90;;;;;;4963188;28;20047;-72
2023/01/13 11:25:34;;;;;;;21.80;5.43;;;8.10;99.90;;;;;;4983607;28;20482;-73
2023/01/13 11:28:22;;;;;;;19.38;4.68;;;8.10;99.90;;;;;;4961721;28;20046;-77
2023/01/13 11:30:51;;;;;;;22.58;4.65;;;8.10;99.90;;;;;;4982331;28;20537;-73
2023/01/13 11:33:44;;;;;;;22.40;5.13;;;8.10;99.90;;;;;;4965946;28;20038;-75
2023/01/13 11:36:17;;;;;;;23.40;5.25;;;8.20;99.90;;;;;;4964818;28;20553;-77
2023/01/13 11:38:51;;;;;;;23.50;4.70;;;8.20;99.90;;;;;;4951829;28;20557;-78
2023/01/13 11:42:19;;;;;;;24.17;4.90;;;8.20;99.90;;;;;;4987813;28;20042;-76
2023/01/13 11:45:02;;;;;;;20.52;4.57;;;8.20;99.90;;;;;;4979786;28;20055;-75
2023/01/13 11:47:30;;;;;;;22.63;4.90;;;8.20;99.90;;;;;;4970607;28;20529;-76
2023/01/13 11:49:56;;;;;;;24.15;4.65;;;8.20;99.90;;;;;;4976468;28;20042;-73
2023/01/13 11:53:00;;;;;;;21.30;4.70;;;8.20;99.90;;;;;;4965926;28;20041;-76
2023/01/13 11:55:29;;;;;;;23.00;4.63;;;8.30;99.90;;;;;;4979199;28;20102;-77
2023/01/13 11:58:05;;;;;;;24.30;5.10;;;8.30;99.90;;;;;;4982462;28;20489;-76
2023/01/13 12:00:55;;;;;;;21.20;5.03;;;8.30;99.90;;;;;;4981251;28;20054;-74
2023/01/13 12:03:56;;;;;;;22.30;4.75;;;8.30;99.90;;;;;;4984161;28;20049;-74
2023/01/13 12:06:38;;;;;;;24.73;4.68;;;8.30;99.90;;;;;;4967847;28;20211;-74
2023/01/13 12:09:26;;;;;;;18.65;3.85;;;8.30;99.90;;;;;;4962543;28;20042;-77
2023/01/13 12:12:21;;;;;;;19.25;4.63;;;8.40;99.90;;;;;;4982023;28;20097;-73
2023/01/13 12:15:16;;;;;;;22.80;4.43;;;8.40;99.90;;;;;;4975212;28;20042;-73
2023/01/13 12:18:05;;;;;;;20.25;4.60;;;8.30;99.90;;;;;;4975953;28;20087;-76
2023/01/13 12:21:16;;;;;;;20.60;4.38;;;8.40;99.90;;;;;;4980402;28;20066;-76
2023/01/13 12:23:50;;;;;;;25.27;5.13;;;8.40;99.90;;;;;;4980559;28;20057;-77
2023/01/13 12:26:16;;;;;;;21.88;4.85;;;8.50;99.90;;;;;;4976638;28;20038;-77
2023/01/13 12:28:54;;;;;;;17.27;3.75;;;8.50;99.90;;;;;;4950199;28;20118;-76
2023/01/13 12:31:22;;;;;;;21.90;4.90;;;8.50;99.90;;;;;;4966274;28;20049;-76
2023/01/13 12:34:00;;;;;;;17.00;3.38;;;8.50;99.90;;;;;;4981867;28;20412;-76
2023/01/13 12:36:34;;;;;;;18.27;3.75;;;8.60;99.90;;;;;;4981097;28;20069;-75
2023/01/13 12:39:25;;;;;;;17.20;4.13;;;8.60;99.90;;;;;;4966563;28;20073;-76
2023/01/13 12:45:10;;;;;;;20.27;4.32;;;8.60;99.90;;;;;;4978687;28;20119;-73
2023/01/13 12:47:38;;;;;;;24.42;5.25;;;8.60;99.90;;;;;;4954812;28;20047;-71
2023/01/13 12:50:24;;;;;;;14.90;3.22;;;8.50;99.90;;;;;;4965625;28;20045;-71
2023/01/13 12:52:55;;;;;;;19.20;4.40;;;8.50;99.90;;;;;;4981703;28;20509;-70
2023/01/13 12:55:29;;;;;;;;;;;8.50;99.90;;;;;;4984035;28;20052;-70
2023/01/13 12:58:01;;;;;;;19.30;3.72;;;8.50;99.90;;;;;;4985761;28;19976;-72
2023/01/13 13:00:56;;;;;;;20.63;3.72;;;8.50;99.90;;;;;;4984508;28;20128;-74
2023/01/13 13:03:35;;;;;;;12.82;3.30;;;8.50;99.90;;;;;;4956238;28;20141;-75
2023/01/13 13:06:13;;;;;;;13.13;3.67;;;8.50;99.90;;;;;;4981162;28;20409;-75
2023/01/13 13:09:03;;;;;;;14.02;2.90;;;8.60;99.90;;;;;;4978399;28;20360;-75
2023/01/13 13:14:36;;;;;;;17.48;3.35;;;8.70;99.90;;;;;;4983169;28;20141;-71
2023/01/13 13:17:04;;;;;;;14.25;3.33;;;8.70;99.90;;;;;;4967881;28;20129;-71
2023/01/13 13:19:30;;;;;;;11.60;2.75;;;8.80;99.90;;;;;;4950811;28;20047;-70
2023/01/13 13:22:11;;;;;;;14.85;3.00;;;8.80;99.90;;;;;;4969543;28;20412;-70
2023/01/13 13:24:38;;;;;;;14.52;3.03;;;8.80;99.90;;;;;;4956289;28;20070;-71
2023/01/13 13:27:23;;;;;;;16.20;3.15;;;8.80;99.90;;;;;;4984790;28;20138;-72
2023/01/13 13:29:57;;;;;;;16.63;3.28;;;8.70;99.90;;;;;;4980298;28;20049;-71
2023/01/13 13:32:51;;;;;;;12.93;3.03;;;8.70;99.90;;;;;;4981798;28;20038;-71
2023/01/13 13:35:54;;;;;;;16.15;3.22;;;8.80;99.90;;;;;;4998082;28;20045;-70
2023/01/13 13:47:23;;;;;;;13.38;2.85;;;8.80;99.90;;;;;;4983990;28;20075;-71
2023/01/13 13:49:53;;;;;;;10.63;3.38;;;8.90;99.90;;;;;;4965399;28;20115;-71
2023/01/13 13:52:40;;;;;;;;;;;8.90;99.90;;;;;;4985102;28;20129;-72
2023/01/13 13:55:18;;;;;;;12.93;2.70;;;8.90;99.90;;;;;;4983803;28;19969;-72
2023/01/13 13:57:46;;;;;;;11.70;3.20;;;9.00;99.90;;;;;;4985222;28;20393;-71
2023/01/13 14:00:21;;;;;;;16.23;3.17;;;9.00;99.90;;;;;;4982399;28;20042;-75
2023/01/13 14:02:57;;;;;;;12.88;3.28;;;8.90;99.90;;;;;;4981588;28;20169;-75
2023/01/13 14:05:37;;;;;;;13.38;3.50;;;8.90;99.90;;;;;;4970913;28;20056;-76
2023/01/13 14:08:14;;;;;;;14.80;3.08;;;8.80;99.90;;;;;;4967526;28;20106;-74
2023/01/13 14:10:43;;;;;;;11.35;2.55;;;8.70;99.90;;;;;;4986934;28;20038;-75
2023/01/13 14:13:29;;;;;;;14.98;3.72;;;8.70;99.90;;;;;;4984693;28;20425;-74
2023/01/13 14:16:04;;;;;;;14.95;3.65;;;8.70;99.90;;;;;;4982050;28;20042;-74
2023/01/13 14:18:34;;;;;;;16.05;3.67;;;8.70;99.90;;;;;;4979288;28;20057;-74
2023/01/13 14:21:15;;;;;;;16.00;3.90;;;8.70;99.90;;;;;;4962899;28;20042;-74